Weather at Essex County Airport

Public forecast

Using degrees Fahrenheit for public forecast. Weather courtesy of forecast.io.

Current aviation weather report (METAR) for Essex County Airport

Retrieved 2020/11/28 07:53 UTC (8 minutes ago):

KCDW 280753Z AUTO 00000KT 10SM BKN065 06/03 A2997 RMK AO2 SLP153 T00560028

Closest aviation forecast (TAF) to Essex County Airport

Closest forecast is Teterboro Airport, 10.1 nm (18.8 km) E. Retrieved 2020/11/28 06:42 UTC (1 hour ago):

TAF KTEB 280541Z 2806/2912 VRB03KT P6SM SCT050 FM281400 29006KT P6SM SCT060 FM281700 29011G18KT P6SM BKN050 FM282200 30005KT P6SM FEW050 FM290300 VRB03KT P6SM FEW060 FEW100